Terminal Aerodrome Forecast
Issued by NWS

Home | Current Version | Previous Version | Text Only | Print | Product List | Glossary On
Versions: 1 2 3 4 5 6 7 8 9 10 11 12 13 14 15 16 17 18
751
FTUS41 KBGM 241742
TAFITH
TAF
KITH 241742Z 2418/2518 18010G18KT P6SM SCT040 SCT080
     FM250000 17012KT P6SM SCT080 BKN250 WS020/20040KT
     FM250800 17012KT P6SM BKN015 WS020/20040KT
     FM251400 18015G25KT P6SM BKN025
      TEMPO 2516/2518 3SM SHRA BR OVC015=

USA.gov is the U.S. government's official web portal to all federal, state and local government web resources and services.